createdAt,value
2024-02-09T00:00:09.585Z,12.90
2024-02-09T00:02:36.505Z,12.90
2024-02-09T00:05:04.049Z,12.90
2024-02-09T00:07:30.967Z,12.90
2024-02-09T00:09:57.855Z,12.90
2024-02-09T00:12:25.394Z,12.80
2024-02-09T00:14:52.402Z,12.80
2024-02-09T00:17:19.235Z,12.80
2024-02-09T00:19:48.240Z,12.80
2024-02-09T00:22:15.261Z,12.80
2024-02-09T00:24:45.123Z,12.80
2024-02-09T00:27:12.787Z,12.80
2024-02-09T00:29:39.652Z,12.80
2024-02-09T00:32:06.768Z,12.80
2024-02-09T00:34:35.728Z,12.80
2024-02-09T00:37:03.105Z,12.80
2024-02-09T00:39:34.664Z,12.80
2024-02-09T00:42:03.258Z,12.80
2024-02-09T00:44:30.344Z,12.80
2024-02-09T00:46:57.557Z,12.80
2024-02-09T00:49:25.277Z,12.80
2024-02-09T00:51:53.426Z,12.80
2024-02-09T00:54:22.729Z,12.80
2024-02-09T00:56:49.885Z,12.80
2024-02-09T00:59:20.001Z,12.80
2024-02-09T01:01:54.371Z,12.80
2024-02-09T01:04:28.928Z,12.80
2024-02-09T01:06:56.684Z,12.80
2024-02-09T01:09:26.745Z,12.80
2024-02-09T01:11:53.569Z,12.80
2024-02-09T01:14:38.828Z,12.70
2024-02-09T01:17:24.287Z,12.70
2024-02-09T01:20:09.876Z,12.70
2024-02-09T01:22:55.411Z,12.70
2024-02-09T01:25:40.929Z,12.70
2024-02-09T01:28:26.238Z,12.70
2024-02-09T01:31:11.477Z,12.70
2024-02-09T01:33:57.233Z,12.70
2024-02-09T01:36:42.746Z,12.70
2024-02-09T01:39:28.381Z,12.70
2024-02-09T01:42:13.924Z,12.60
2024-02-09T01:44:59.499Z,12.60
2024-02-09T01:47:45.160Z,12.60
2024-02-09T01:50:31.793Z,12.50
2024-02-09T01:53:18.045Z,12.50
2024-02-09T01:56:03.997Z,12.50
2024-02-09T01:58:49.765Z,12.50
2024-02-09T02:01:35.308Z,12.40
2024-02-09T02:04:21.264Z,12.40
2024-02-09T02:07:07.057Z,12.40
2024-02-09T02:09:52.761Z,12.40
2024-02-09T02:12:37.895Z,12.40
2024-02-09T02:15:23.866Z,12.30
2024-02-09T02:18:09.285Z,12.30
2024-02-09T02:20:54.775Z,12.30
2024-02-09T02:23:45.970Z,12.30
2024-02-09T02:26:31.602Z,12.30
2024-02-09T02:29:17.133Z,12.30
2024-02-09T02:32:02.593Z,12.30
2024-02-09T02:34:48.117Z,12.30
2024-02-09T02:37:33.362Z,12.30
2024-02-09T02:40:18.797Z,12.30
2024-02-09T02:42:45.543Z,12.30
2024-02-09T02:45:13.754Z,12.30
2024-02-09T02:47:41.781Z,12.30
2024-02-09T02:50:28.196Z,12.30
2024-02-09T02:53:13.446Z,12.30
2024-02-09T02:55:59.099Z,12.30
2024-02-09T02:58:44.676Z,12.30
2024-02-09T03:01:31.176Z,12.30
2024-02-09T03:04:16.544Z,12.30
2024-02-09T03:07:03.401Z,12.30
2024-02-09T03:09:30.652Z,12.30
2024-02-09T03:12:01.025Z,12.40
2024-02-09T03:14:29.196Z,12.30
2024-02-09T03:16:58.882Z,12.40
2024-02-09T03:19:25.862Z,12.30
2024-02-09T03:21:55.314Z,12.30
2024-02-09T03:24:22.499Z,12.30
2024-02-09T03:26:49.353Z,12.30
2024-02-09T03:29:16.149Z,12.30
2024-02-09T03:31:43.906Z,12.30
2024-02-09T03:34:11.088Z,12.30
2024-02-09T03:36:38.173Z,12.30
2024-02-09T03:39:07.048Z,12.30
2024-02-09T03:41:33.995Z,12.30
2024-02-09T03:44:06.011Z,12.30
2024-02-09T03:46:34.115Z,12.30
2024-02-09T03:49:01.128Z,12.30
2024-02-09T03:51:28.222Z,12.20
2024-02-09T03:53:55.048Z,12.20
2024-02-09T03:56:21.857Z,12.20
2024-02-09T03:58:48.653Z,12.20
2024-02-09T04:01:16.467Z,12.20
2024-02-09T04:03:43.739Z,12.20
2024-02-09T04:06:10.843Z,12.10
2024-02-09T04:08:37.724Z,12.20
2024-02-09T04:11:04.700Z,12.10
2024-02-09T04:13:31.841Z,12.10
2024-02-09T04:16:01.887Z,12.10
2024-02-09T04:18:30.606Z,12.10
2024-02-09T04:20:57.896Z,12.20
2024-02-09T04:23:24.838Z,12.20
2024-02-09T04:25:51.691Z,12.10
2024-02-09T04:28:19.388Z,12.20
2024-02-09T04:30:48.089Z,12.10
2024-02-09T04:33:17.143Z,12.10
2024-02-09T04:35:44.657Z,12.10
2024-02-09T04:38:11.803Z,12.10
2024-02-09T04:40:38.695Z,12.10
2024-02-09T04:43:06.877Z,12.10
2024-02-09T04:45:33.919Z,12.20
2024-02-09T04:48:00.850Z,12.10
2024-02-09T04:50:27.781Z,12.20
2024-02-09T04:52:55.833Z,12.10
2024-02-09T04:55:23.090Z,12.10
2024-02-09T04:57:49.964Z,12.10
2024-02-09T05:00:17.613Z,12.10
2024-02-09T05:02:48.212Z,12.10
2024-02-09T05:05:15.753Z,12.10
2024-02-09T05:07:42.971Z,12.00
2024-02-09T05:10:10.382Z,12.00
2024-02-09T05:12:37.193Z,12.00
2024-02-09T05:15:04.323Z,12.00
2024-02-09T05:17:31.174Z,12.00
2024-02-09T05:20:02.527Z,12.00
2024-02-09T05:22:30.143Z,12.00
2024-02-09T05:24:57.410Z,12.00
2024-02-09T05:27:24.316Z,12.00
2024-02-09T05:29:51.358Z,12.00
2024-02-09T05:32:18.225Z,12.00
2024-02-09T05:34:46.058Z,12.00
2024-02-09T05:37:14.489Z,12.00
2024-02-09T05:39:46.277Z,12.00
2024-02-09T05:42:13.190Z,12.00
2024-02-09T05:44:40.244Z,12.00
2024-02-09T05:47:07.112Z,12.10
2024-02-09T05:49:34.177Z,12.10
2024-02-09T05:52:01.308Z,12.10
2024-02-09T05:54:28.279Z,12.10
2024-02-09T05:56:55.055Z,12.10
2024-02-09T05:59:24.777Z,12.10
2024-02-09T06:01:51.976Z,12.20
2024-02-09T06:04:18.990Z,12.10
2024-02-09T06:06:46.871Z,12.20
2024-02-09T06:09:13.858Z,12.20
2024-02-09T06:11:40.825Z,12.20
2024-02-09T06:14:10.585Z,12.20
2024-02-09T06:16:37.855Z,12.20
2024-02-09T06:19:04.853Z,12.20
2024-02-09T06:21:32.805Z,12.20
2024-02-09T06:23:59.743Z,12.30
2024-02-09T06:26:26.704Z,12.30
2024-02-09T06:28:54.375Z,12.30
2024-02-09T06:31:28.233Z,12.30
2024-02-09T06:33:58.108Z,12.30
2024-02-09T06:36:26.577Z,12.30
2024-02-09T06:38:55.191Z,12.30
2024-02-09T06:41:22.371Z,12.30
2024-02-09T06:43:49.664Z,12.30
2024-02-09T06:46:20.744Z,12.30
2024-02-09T06:48:49.981Z,12.40
2024-02-09T06:51:21.736Z,12.30
2024-02-09T06:53:49.343Z,12.30
2024-02-09T06:56:16.618Z,12.40
2024-02-09T06:58:47.125Z,12.40
2024-02-09T07:01:14.699Z,12.40
2024-02-09T07:03:42.339Z,12.40
2024-02-09T07:06:09.889Z,12.40
2024-02-09T07:08:45.126Z,12.40
2024-02-09T07:11:14.257Z,12.40
2024-02-09T07:13:45.507Z,12.50
2024-02-09T07:16:12.661Z,12.50
2024-02-09T07:18:42.142Z,12.50
2024-02-09T07:21:11.332Z,12.50
2024-02-09T07:23:38.596Z,12.50
2024-02-09T07:26:09.821Z,12.50
2024-02-09T07:28:42.690Z,12.60
2024-02-09T07:31:10.998Z,12.60
2024-02-09T07:33:38.543Z,12.60
2024-02-09T07:36:08.214Z,12.60
2024-02-09T07:38:36.028Z,12.60
2024-02-09T07:41:03.158Z,12.60
2024-02-09T07:43:29.868Z,12.60
2024-02-09T07:45:56.789Z,12.60
2024-02-09T07:48:23.676Z,12.60
2024-02-09T07:50:53.844Z,12.60
2024-02-09T07:53:20.679Z,12.60
2024-02-09T07:55:47.619Z,12.60
2024-02-09T07:58:16.542Z,12.60
2024-02-09T08:00:43.857Z,12.60
2024-02-09T08:03:12.208Z,12.70
2024-02-09T08:05:39.547Z,12.70
2024-02-09T08:08:06.953Z,12.70
2024-02-09T08:10:33.829Z,12.70
2024-02-09T08:13:00.666Z,12.70
2024-02-09T08:15:27.416Z,12.70
2024-02-09T08:17:54.667Z,12.70
2024-02-09T08:20:21.780Z,12.70
2024-02-09T08:22:49.242Z,12.70
2024-02-09T08:25:16.810Z,12.80
2024-02-09T08:27:43.835Z,12.80
2024-02-09T08:30:11.275Z,12.80
2024-02-09T08:32:40.277Z,12.80
2024-02-09T08:35:08.061Z,12.80
2024-02-09T08:37:36.513Z,12.90
2024-02-09T08:40:03.750Z,12.90
2024-02-09T08:42:30.676Z,12.90
2024-02-09T08:44:58.843Z,12.90
2024-02-09T08:47:26.221Z,13.00
2024-02-09T08:49:53.210Z,13.00
2024-02-09T08:52:20.184Z,13.10
2024-02-09T08:54:47.441Z,13.10
2024-02-09T08:57:19.727Z,13.10
2024-02-09T08:59:46.627Z,13.10
2024-02-09T09:02:13.514Z,13.10
2024-02-09T09:04:40.817Z,13.20
2024-02-09T09:07:07.837Z,13.20
2024-02-09T09:09:35.647Z,13.20
2024-02-09T09:12:07.835Z,13.20
2024-02-09T09:14:38.197Z,13.30
2024-02-09T09:17:13.014Z,13.30
2024-02-09T09:19:48.396Z,13.30
2024-02-09T09:22:15.621Z,13.40
2024-02-09T09:24:42.633Z,13.40
2024-02-09T09:27:09.753Z,13.40
2024-02-09T09:29:36.948Z,13.40
2024-02-09T09:32:04.066Z,13.50
2024-02-09T09:34:32.315Z,13.60
2024-02-09T09:36:59.684Z,13.60
2024-02-09T09:39:28.320Z,13.60
2024-02-09T09:41:57.808Z,13.70
2024-02-09T09:44:28.573Z,13.70
2024-02-09T09:46:58.144Z,13.80
2024-02-09T09:49:28.225Z,13.80
2024-02-09T09:52:00.281Z,13.80
2024-02-09T09:54:30.666Z,13.90
2024-02-09T09:57:00.363Z,13.90
2024-02-09T09:59:27.700Z,13.90
2024-02-09T10:01:56.010Z,13.90
2024-02-09T10:04:23.104Z,13.90
2024-02-09T10:06:50.528Z,13.90
2024-02-09T10:09:17.797Z,13.90
2024-02-09T10:11:46.684Z,13.90
2024-02-09T10:14:15.711Z,14.00
2024-02-09T10:16:45.312Z,14.00
2024-02-09T10:19:15.706Z,14.00
2024-02-09T10:21:50.913Z,14.00
2024-02-09T10:24:24.050Z,14.00
2024-02-09T10:26:51.266Z,14.10
2024-02-09T10:29:22.753Z,14.10
2024-02-09T10:31:51.072Z,14.10
2024-02-09T10:34:18.139Z,14.10
2024-02-09T10:36:45.269Z,14.10
2024-02-09T10:39:12.263Z,14.10
2024-02-09T10:41:40.815Z,14.10
2024-02-09T10:44:10.319Z,14.10
2024-02-09T10:46:40.211Z,14.10
2024-02-09T10:49:10.396Z,14.20
2024-02-09T10:51:40.227Z,14.20
2024-02-09T10:54:17.699Z,14.20
2024-02-09T10:56:44.810Z,14.20
2024-02-09T10:59:14.700Z,14.20
2024-02-09T11:01:41.750Z,14.20
2024-02-09T11:04:08.875Z,14.30
2024-02-09T11:06:37.072Z,14.30
2024-02-09T11:09:04.896Z,14.30
2024-02-09T11:11:35.524Z,14.30
2024-02-09T11:14:38.035Z,14.30
2024-02-09T11:17:08.376Z,14.30
2024-02-09T11:19:39.806Z,14.30
2024-02-09T11:22:08.473Z,14.30
2024-02-09T11:24:35.580Z,14.40
2024-02-09T11:27:04.136Z,14.40
2024-02-09T11:29:33.767Z,14.40
2024-02-09T11:32:06.592Z,14.40
2024-02-09T11:34:37.787Z,14.40
2024-02-09T11:37:05.076Z,14.50
2024-02-09T11:39:33.605Z,14.50
2024-02-09T11:42:01.393Z,14.50
2024-02-09T11:44:29.221Z,14.50
2024-02-09T11:46:58.078Z,14.50
2024-02-09T11:49:25.517Z,14.50
2024-02-09T11:52:00.497Z,14.50
2024-02-09T11:54:27.276Z,14.50
2024-02-09T11:56:57.411Z,14.50
2024-02-09T11:59:24.745Z,14.50
2024-02-09T12:01:54.727Z,14.50
2024-02-09T12:04:22.750Z,14.50
2024-02-09T12:06:50.357Z,14.50
2024-02-09T12:09:17.290Z,14.50
2024-02-09T12:11:48.582Z,14.50
2024-02-09T12:14:15.500Z,14.40
2024-02-09T12:16:42.397Z,14.50
2024-02-09T12:19:09.509Z,14.40
2024-02-09T12:21:36.521Z,14.40
2024-02-09T12:24:05.134Z,14.40
2024-02-09T12:26:33.828Z,14.40
2024-02-09T12:29:13.806Z,14.50
2024-02-09T12:31:44.966Z,14.40
2024-02-09T12:34:12.211Z,14.40
2024-02-09T12:36:39.445Z,14.40
2024-02-09T12:39:08.299Z,14.40
2024-02-09T12:41:40.615Z,14.50
2024-02-09T12:44:08.143Z,14.50
2024-02-09T12:46:36.036Z,14.40
2024-02-09T12:49:03.165Z,14.40
2024-02-09T12:51:34.449Z,14.40
2024-02-09T12:54:03.590Z,14.40
2024-02-09T12:56:31.072Z,14.40
2024-02-09T12:58:57.957Z,14.30
2024-02-09T13:01:24.980Z,14.30
2024-02-09T13:03:51.958Z,14.30
2024-02-09T13:06:18.869Z,14.30
2024-02-09T13:08:45.775Z,14.30
2024-02-09T13:11:12.620Z,14.30
2024-02-09T13:13:41.276Z,14.30
2024-02-09T13:16:13.544Z,14.30
2024-02-09T13:18:40.556Z,14.20
2024-02-09T13:21:07.516Z,14.20
2024-02-09T13:23:35.926Z,14.20
2024-02-09T13:26:03.827Z,14.20
2024-02-09T13:28:32.184Z,14.20
2024-02-09T13:31:00.195Z,14.20
2024-02-09T13:33:27.296Z,14.20
2024-02-09T13:35:55.776Z,14.20
2024-02-09T13:38:24.015Z,14.20
2024-02-09T13:40:51.432Z,14.20
2024-02-09T13:43:18.522Z,14.20
2024-02-09T13:45:46.982Z,14.10
2024-02-09T13:48:14.059Z,14.10
2024-02-09T13:50:41.270Z,14.10
2024-02-09T13:53:08.134Z,14.10
2024-02-09T13:55:36.718Z,14.10
2024-02-09T13:58:03.706Z,14.10
2024-02-09T14:00:31.011Z,14.10
2024-02-09T14:02:57.796Z,14.10
2024-02-09T14:05:25.029Z,14.10
2024-02-09T14:07:52.573Z,14.10
2024-02-09T14:10:20.519Z,14.10
2024-02-09T14:12:48.809Z,14.10
2024-02-09T14:15:15.972Z,14.10
2024-02-09T14:17:43.046Z,14.10
2024-02-09T14:20:10.884Z,14.10
2024-02-09T14:22:37.882Z,14.10
2024-02-09T14:25:05.332Z,14.10
2024-02-09T14:27:33.260Z,14.10
2024-02-09T14:30:00.780Z,14.00
2024-02-09T14:32:27.958Z,14.00
2024-02-09T14:34:54.958Z,14.00
2024-02-09T14:37:22.984Z,14.00
2024-02-09T14:39:50.183Z,14.00
2024-02-09T14:42:17.060Z,14.00
2024-02-09T14:44:50.363Z,14.00
2024-02-09T14:47:18.018Z,14.00
2024-02-09T14:49:49.693Z,14.00
2024-02-09T14:52:18.364Z,14.00
2024-02-09T14:54:46.025Z,14.00
2024-02-09T14:57:14.396Z,14.00
2024-02-09T14:59:41.337Z,13.90
2024-02-09T15:02:12.127Z,13.90
2024-02-09T15:04:44.388Z,13.90
2024-02-09T15:07:12.759Z,14.00
2024-02-09T15:09:41.702Z,14.00
2024-02-09T15:12:08.899Z,14.00
2024-02-09T15:14:38.630Z,14.00
2024-02-09T15:17:07.336Z,14.00
2024-02-09T15:19:35.674Z,14.00
2024-02-09T15:22:02.993Z,14.00
2024-02-09T15:24:30.016Z,14.00
2024-02-09T15:26:56.837Z,14.00
2024-02-09T15:29:26.100Z,14.00
2024-02-09T15:31:55.384Z,14.00
2024-02-09T15:34:23.969Z,14.00
2024-02-09T15:36:51.388Z,14.00
2024-02-09T15:39:18.324Z,14.00
2024-02-09T15:41:45.478Z,14.00
2024-02-09T15:44:13.060Z,14.00
2024-02-09T15:46:40.364Z,14.00
2024-02-09T15:49:07.486Z,14.00
2024-02-09T15:51:36.536Z,14.00
2024-02-09T15:54:06.065Z,13.90
2024-02-09T15:56:33.892Z,13.90
2024-02-09T15:59:01.883Z,13.90
2024-02-09T16:01:40.204Z,13.90
2024-02-09T16:04:08.091Z,13.90
2024-02-09T16:06:35.863Z,13.90
2024-02-09T16:09:02.976Z,13.80
2024-02-09T16:11:34.162Z,13.80
2024-02-09T16:14:04.793Z,13.80
2024-02-09T16:16:32.394Z,13.80
2024-02-09T16:19:02.551Z,13.80
2024-02-09T16:21:33.765Z,13.80
2024-02-09T16:24:02.964Z,13.80
2024-02-09T16:26:29.936Z,13.80
2024-02-09T16:28:57.969Z,13.80
2024-02-09T16:31:25.539Z,13.70
2024-02-09T16:33:53.141Z,13.70
2024-02-09T16:36:23.417Z,13.70
2024-02-09T16:38:53.427Z,13.60
2024-02-09T16:41:20.601Z,13.60
2024-02-09T16:43:47.750Z,13.50
2024-02-09T16:46:15.440Z,13.50
2024-02-09T16:48:43.455Z,13.50
2024-02-09T16:51:12.082Z,13.50
2024-02-09T16:53:38.983Z,13.50
2024-02-09T16:56:06.268Z,13.40
2024-02-09T16:58:33.204Z,13.30
2024-02-09T17:01:00.755Z,13.30
2024-02-09T17:03:29.198Z,13.30
2024-02-09T17:05:56.300Z,13.30
2024-02-09T17:08:23.194Z,13.20
2024-02-09T17:10:50.221Z,13.20
2024-02-09T17:13:17.051Z,13.20
2024-02-09T17:15:43.896Z,13.20
2024-02-09T17:18:10.869Z,13.10
2024-02-09T17:20:39.239Z,13.10
2024-02-09T17:23:06.844Z,13.00
2024-02-09T17:25:34.359Z,13.00
2024-02-09T17:28:01.401Z,13.00
2024-02-09T17:30:28.984Z,13.00
2024-02-09T17:32:56.264Z,13.00
2024-02-09T17:35:23.342Z,13.00
2024-02-09T17:37:51.287Z,13.00
2024-02-09T17:40:20.518Z,13.00
2024-02-09T17:42:50.333Z,13.00
2024-02-09T17:45:17.397Z,13.00
2024-02-09T17:47:46.584Z,13.30
2024-02-09T17:50:17.043Z,13.80
2024-02-09T17:52:44.387Z,14.10
2024-02-09T17:55:12.876Z,14.30
2024-02-09T17:57:39.769Z,14.50
2024-02-09T18:00:07.845Z,14.50
2024-02-09T18:02:35.008Z,14.40
2024-02-09T18:05:02.356Z,14.50
2024-02-09T18:07:29.487Z,14.40
2024-02-09T18:09:56.941Z,14.30
2024-02-09T18:12:24.060Z,14.40
2024-02-09T18:14:51.514Z,14.40
2024-02-09T18:17:19.925Z,14.30
2024-02-09T18:19:47.264Z,14.20
2024-02-09T18:22:17.331Z,14.10
2024-02-09T18:24:48.404Z,14.00
2024-02-09T18:27:16.205Z,13.90
2024-02-09T18:29:42.977Z,13.80
2024-02-09T18:32:09.907Z,13.70
2024-02-09T18:34:37.419Z,13.60
2024-02-09T18:37:05.173Z,13.50
2024-02-09T18:39:32.008Z,13.40
2024-02-09T18:41:59.841Z,13.40
2024-02-09T18:44:29.529Z,13.40
2024-02-09T18:46:57.191Z,13.30
2024-02-09T18:49:27.221Z,13.30
2024-02-09T18:51:55.282Z,13.30
2024-02-09T18:54:23.227Z,13.20
2024-02-09T18:56:50.316Z,13.20
2024-02-09T18:59:17.926Z,13.20
2024-02-09T19:01:45.852Z,13.10
2024-02-09T19:04:14.769Z,13.10
2024-02-09T19:06:42.213Z,13.10
2024-02-09T19:09:12.040Z,13.10
2024-02-09T19:11:39.095Z,13.10
2024-02-09T19:14:06.033Z,13.00
2024-02-09T19:16:33.698Z,13.00
2024-02-09T19:19:02.857Z,13.00
2024-02-09T19:21:30.806Z,13.00
2024-02-09T19:23:58.576Z,13.00
2024-02-09T19:26:25.472Z,13.00
2024-02-09T19:28:53.174Z,13.00
2024-02-09T19:31:21.123Z,13.00
2024-02-09T19:33:48.811Z,13.00
2024-02-09T19:36:20.695Z,12.90
2024-02-09T19:38:48.542Z,13.00
2024-02-09T19:41:24.550Z,12.90
2024-02-09T19:43:51.704Z,12.90
2024-02-09T19:46:22.213Z,12.90
2024-02-09T19:48:50.776Z,12.80
2024-02-09T19:51:18.469Z,12.90
2024-02-09T19:53:45.618Z,12.80
2024-02-09T19:56:12.621Z,12.80
2024-02-09T19:58:42.392Z,12.80
2024-02-09T20:01:11.368Z,12.80
2024-02-09T20:03:39.683Z,12.80
2024-02-09T20:06:07.035Z,12.80
2024-02-09T20:08:34.041Z,12.80
2024-02-09T20:11:01.370Z,12.80
2024-02-09T20:13:28.467Z,12.80
2024-02-09T20:15:59.775Z,12.80
2024-02-09T20:18:27.038Z,12.80
2024-02-09T20:20:54.878Z,12.80
2024-02-09T20:23:22.125Z,12.80
2024-02-09T20:25:49.120Z,12.80
2024-02-09T20:28:16.456Z,12.80
2024-02-09T20:30:43.382Z,12.80
2024-02-09T20:33:13.078Z,12.80
2024-02-09T20:35:41.027Z,12.80
2024-02-09T20:38:08.330Z,12.80
2024-02-09T20:40:35.801Z,12.80
2024-02-09T20:43:03.298Z,12.80
2024-02-09T20:45:30.979Z,12.70
2024-02-09T20:48:01.558Z,12.80
2024-02-09T20:50:34.035Z,12.70
2024-02-09T20:53:07.904Z,12.80
2024-02-09T20:55:36.769Z,12.70
2024-02-09T20:58:05.069Z,12.70
2024-02-09T21:00:38.883Z,12.70
2024-02-09T21:03:07.546Z,12.70
2024-02-09T21:05:39.246Z,12.70
2024-02-09T21:08:07.326Z,12.70
2024-02-09T21:10:36.225Z,12.70
2024-02-09T21:13:03.238Z,12.70
2024-02-09T21:15:31.990Z,12.60
2024-02-09T21:18:00.392Z,12.60
2024-02-09T21:20:32.672Z,12.60
2024-02-09T21:22:59.722Z,12.60
2024-02-09T21:25:27.009Z,12.60
2024-02-09T21:27:54.224Z,12.60
2024-02-09T21:30:25.711Z,12.60
2024-02-09T21:32:58.195Z,12.50
2024-02-09T21:35:28.971Z,12.50
2024-02-09T21:37:58.414Z,12.50
2024-02-09T21:40:28.933Z,12.50
2024-02-09T21:42:59.554Z,12.50
2024-02-09T21:45:26.404Z,12.50
2024-02-09T21:47:54.364Z,12.50
2024-02-09T21:50:22.039Z,12.50
2024-02-09T21:52:49.163Z,12.50
2024-02-09T21:55:17.338Z,12.50
2024-02-09T21:57:44.197Z,12.50
2024-02-09T22:00:12.342Z,12.50
2024-02-09T22:02:44.053Z,12.50
2024-02-09T22:05:11.413Z,12.40
2024-02-09T22:07:38.630Z,12.50
2024-02-09T22:10:06.057Z,12.50
2024-02-09T22:12:32.920Z,12.50
2024-02-09T22:15:01.179Z,12.50
2024-02-09T22:17:29.362Z,12.50
2024-02-09T22:19:59.719Z,12.50
2024-02-09T22:22:27.662Z,12.50
2024-02-09T22:24:55.734Z,12.50
2024-02-09T22:27:22.673Z,12.50
2024-02-09T22:29:53.169Z,12.40
2024-02-09T22:32:22.254Z,12.40
2024-02-09T22:34:50.707Z,12.40
2024-02-09T22:37:17.916Z,12.40
2024-02-09T22:39:46.386Z,12.40
2024-02-09T22:42:13.670Z,12.40
2024-02-09T22:44:44.098Z,12.40
2024-02-09T22:47:11.596Z,12.40
2024-02-09T22:49:39.084Z,12.40
2024-02-09T22:52:12.873Z,12.40
2024-02-09T22:54:42.727Z,12.40
2024-02-09T22:57:14.912Z,12.40
2024-02-09T22:59:42.390Z,12.40
2024-02-09T23:02:09.493Z,12.40
2024-02-09T23:04:37.228Z,12.30
2024-02-09T23:07:05.878Z,12.30
2024-02-09T23:09:32.905Z,12.40
2024-02-09T23:12:00.202Z,12.30
2024-02-09T23:14:27.420Z,12.30
2024-02-09T23:16:54.941Z,12.30
2024-02-09T23:19:25.899Z,12.30
2024-02-09T23:21:54.962Z,12.30
2024-02-09T23:24:23.192Z,12.30
2024-02-09T23:26:54.654Z,12.30
2024-02-09T23:29:24.392Z,12.30
2024-02-09T23:31:52.225Z,12.30
2024-02-09T23:34:21.128Z,12.30
2024-02-09T23:36:49.585Z,12.30
2024-02-09T23:39:17.243Z,12.20
2024-02-09T23:41:44.010Z,12.20
2024-02-09T23:44:10.941Z,12.20
2024-02-09T23:46:38.242Z,12.20
2024-02-09T23:49:06.150Z,12.20
2024-02-09T23:51:35.212Z,12.20
2024-02-09T23:54:03.086Z,12.20
2024-02-09T23:56:30.937Z,12.20
2024-02-09T23:58:59.345Z,12.20
